Time;durP1;ratioP1;P1;durP2;ratioP2;P2;SDS_P1;SDS_P2;PMS_P1;PMS_P2;Temp;Humidity;BMP_temperature;BMP_pressure;BME280_temperature;BME280_humidity;BME280_pressure;Samples;Min_cycle;Max_cycle;Signal;HPM_P1;HPM_P2
2022/09/10 00:00:42;;;;;;;2.30;1.37;;;;;23.70;99927.00;;;;2086752;28;20212;-52
2022/09/10 00:01:42;;;;;;;2.20;1.17;;;;;23.70;99927.00;;;;2088541;28;20256;-53
2022/09/10 00:02:44;;;;;;;1.73;1.10;;;;;23.70;99918.00;;;;2094950;28;20251;-53
2022/09/10 00:03:44;;;;;;;1.60;1.40;;;;;23.70;99917.00;;;;2094537;28;20220;-53
2022/09/10 00:04:45;;;;;;;2.30;1.27;;;;;23.70;99919.00;;;;2094377;28;20216;-53
2022/09/10 00:05:45;;;;;;;2.60;1.67;;;;;23.70;99929.00;;;;2095042;28;20532;-54
2022/09/10 00:06:45;;;;;;;1.87;1.47;;;;;23.70;99920.00;;;;2094498;28;20212;-53
2022/09/10 00:07:46;;;;;;;4.23;2.00;;;;;23.60;99930.00;;;;2093979;28;20212;-53
2022/09/10 00:08:48;;;;;;;1.40;1.20;;;;;23.70;99924.00;;;;2095032;28;20726;-53
2022/09/10 00:09:48;;;;;;;1.60;1.50;;;;;23.60;99923.00;;;;2094243;28;20538;-54
2022/09/10 00:10:50;;;;;;;2.40;1.33;;;;;23.70;99922.00;;;;2094190;28;20216;-53
2022/09/10 00:11:50;;;;;;;2.97;1.40;;;;;23.70;99921.00;;;;2095090;28;20578;-54
2022/09/10 00:12:51;;;;;;;2.40;1.20;;;;;23.70;99930.00;;;;2094755;28;23035;-53
2022/09/10 00:13:51;;;;;;;2.03;1.20;;;;;23.70;99932.00;;;;2095022;28;20663;-53
2022/09/10 00:14:53;;;;;;;2.50;1.23;;;;;23.70;99928.00;;;;2093781;28;20845;-53
2022/09/10 00:15:53;;;;;;;2.17;1.35;;;;;23.70;99924.00;;;;2094532;28;20273;-53
2022/09/10 00:16:54;;;;;;;2.17;1.30;;;;;23.70;99927.00;;;;2094847;28;20265;-54
2022/09/10 00:17:54;;;;;;;2.30;1.30;;;;;23.70;99925.00;;;;2093597;28;20824;-53
2022/09/10 00:18:56;;;;;;;1.60;1.13;;;;;23.70;99926.00;;;;2094903;28;20737;-53
2022/09/10 00:19:58;;;;;;;2.25;1.45;;;;;23.70;99925.00;;;;2095045;28;20576;-53
2022/09/10 00:20:58;;;;;;;1.52;1.30;;;;;23.70;99925.00;;;;2094870;28;20213;-53
2022/09/10 00:21:59;;;;;;;1.90;1.13;;;;;23.70;99926.00;;;;2088700;28;20244;-53
2022/09/10 00:23:01;;;;;;;2.77;1.40;;;;;23.70;99930.00;;;;2086073;28;20228;-53
2022/09/10 00:24:02;;;;;;;2.63;1.10;;;;;23.70;99934.00;;;;2086677;28;20259;-53
2022/09/10 00:25:02;;;;;;;2.30;1.43;;;;;23.70;99924.00;;;;2086483;28;20633;-53
2022/09/10 00:26:15;;;;;;;1.97;1.27;;;;;23.70;99938.00;;;;2086846;28;20244;-53
2022/09/10 00:27:16;;;;;;;1.30;0.93;;;;;23.70;99933.00;;;;2086009;28;20718;-53
2022/09/10 00:28:16;;;;;;;3.03;1.30;;;;;23.70;99930.00;;;;2086404;28;20224;-53
2022/09/10 00:29:18;;;;;;;1.83;1.07;;;;;23.70;99935.00;;;;2086352;28;20218;-53
2022/09/10 00:30:19;;;;;;;1.42;1.13;;;;;23.70;99940.00;;;;2086581;28;20215;-53
2022/09/10 00:31:20;;;;;;;3.13;1.20;;;;;23.70;99936.00;;;;2091252;28;20570;-53
2022/09/10 00:32:20;;;;;;;2.85;1.20;;;;;23.70;99928.00;;;;2094685;28;20227;-53
2022/09/10 00:33:21;;;;;;;1.60;1.20;;;;;23.70;99925.00;;;;2087111;28;20219;-53
2022/09/10 00:34:21;;;;;;;2.03;1.20;;;;;23.70;99933.00;;;;2098733;28;20299;-53
2022/09/10 00:35:22;;;;;;;1.80;1.07;;;;;23.70;99935.00;;;;2092167;28;20289;-54
2022/09/10 00:36:27;;;;;;;1.80;1.23;;;;;23.60;99926.00;;;;2086888;28;20205;-53
2022/09/10 00:37:28;;;;;;;1.27;0.90;;;;;23.70;99924.00;;;;2086630;28;20290;-53
2022/09/10 00:38:28;;;;;;;1.40;1.00;;;;;23.60;99922.00;;;;2087579;28;20697;-53
2022/09/10 00:39:29;;;;;;;1.80;1.17;;;;;23.60;99915.00;;;;2088283;28;20715;-53
2022/09/10 00:40:30;;;;;;;2.03;0.80;;;;;23.60;99926.00;;;;2088140;28;20209;-53
2022/09/10 00:41:31;;;;;;;1.83;0.82;;;;;23.60;99918.00;;;;2085814;28;20610;-53
2022/09/10 00:42:32;;;;;;;2.53;1.00;;;;;23.60;99923.00;;;;2087353;28;20315;-53
2022/09/10 00:43:53;;;;;;;1.60;0.90;;;;;23.70;99924.00;;;;2087522;28;20224;-53
2022/09/10 00:44:56;;;;;;;1.73;0.95;;;;;23.60;99922.00;;;;2092572;28;20586;-53
2022/09/10 00:45:57;;;;;;;2.47;0.90;;;;;23.60;99924.00;;;;2096261;28;20230;-53
2022/09/10 00:46:58;;;;;;;1.30;0.90;;;;;23.60;99921.00;;;;2095642;28;20231;-53
2022/09/10 00:48:10;;;;;;;2.30;0.97;;;;;23.70;99923.00;;;;2086519;28;20356;-53
2022/09/10 00:49:24;;;;;;;1.52;0.93;;;;;23.70;99922.00;;;;2080016;28;20881;-54
2022/09/10 00:50:29;;;;;;;1.30;0.85;;;;;23.60;99920.00;;;;2079633;28;20219;-53
2022/09/10 00:51:32;;;;;;;2.75;1.23;;;;;23.70;99895.00;;;;2079539;28;20670;-53
2022/09/10 00:52:33;;;;;;;1.30;0.70;;;;;23.60;99917.00;;;;2080019;28;20233;-54
2022/09/10 00:53:33;;;;;;;1.50;1.00;;;;;23.70;99925.00;;;;2079711;28;20218;-54
2022/09/10 00:54:34;;;;;;;1.20;1.00;;;;;23.60;99927.00;;;;2095522;28;20223;-53
2022/09/10 00:55:35;;;;;;;1.63;0.83;;;;;23.60;99922.00;;;;2095497;28;20254;-53
2022/09/10 00:56:35;;;;;;;1.70;1.03;;;;;23.60;99922.00;;;;2087368;28;20821;-53
2022/09/10 00:57:35;;;;;;;2.33;0.80;;;;;23.60;99918.00;;;;2086420;28;20326;-54
2022/09/10 00:58:35;;;;;;;1.10;0.90;;;;;23.70;99906.00;;;;2095609;28;20216;-53
2022/09/10 00:59:36;;;;;;;1.70;0.77;;;;;23.70;99918.00;;;;2095565;28;20208;-53
2022/09/10 01:00:36;;;;;;;1.57;1.00;;;;;23.60;99921.00;;;;2094398;28;20219;-53
2022/09/10 01:01:37;;;;;;;1.40;0.77;;;;;23.60;99921.00;;;;2093747;28;20208;-53
2022/09/10 01:02:37;;;;;;;1.43;0.97;;;;;23.60;99917.00;;;;2079288;28;20221;-53
2022/09/10 01:03:38;;;;;;;2.07;0.73;;;;;23.60;99917.00;;;;2070774;28;20825;-53
2022/09/10 01:04:39;;;;;;;0.80;0.67;;;;;23.60;99921.00;;;;2079133;28;20301;-53
2022/09/10 01:05:41;;;;;;;2.10;0.70;;;;;23.70;99895.00;;;;2092846;28;20243;-53
2022/09/10 01:06:44;;;;;;;1.70;1.00;;;;;23.70;99923.00;;;;2095292;28;20212;-54
2022/09/10 01:07:44;;;;;;;1.92;1.20;;;;;23.60;99918.00;;;;2086375;28;20216;-53
2022/09/10 01:08:45;;;;;;;1.20;0.90;;;;;23.60;99924.00;;;;2087259;28;20654;-54
2022/09/10 01:09:45;;;;;;;1.57;0.90;;;;;23.60;99917.00;;;;2088111;28;20286;-54
2022/09/10 01:11:07;;;;;;;1.90;1.03;;;;;23.60;99915.00;;;;2087145;28;20212;-54
2022/09/10 01:12:11;;;;;;;1.00;0.60;;;;;23.70;99919.00;;;;2094214;28;20230;-53
2022/09/10 01:13:39;;;;;;;2.75;1.10;;;;;23.60;99915.00;;;;2095426;28;20228;-54
2022/09/10 01:14:48;;;;;;;1.63;0.90;;;;;23.60;99928.00;;;;2095323;28;20216;-53
2022/09/10 01:16:18;;;;;;;1.40;0.70;;;;;23.60;99912.00;;;;2087877;28;20727;-53
2022/09/10 01:17:29;;;;;;;2.42;0.73;;;;;23.60;99906.00;;;;2090393;28;20216;-53
2022/09/10 01:18:39;;;;;;;1.45;1.00;;;;;23.60;99892.00;;;;2084885;28;20206;-53
2022/09/10 01:19:49;;;;;;;1.98;0.93;;;;;23.60;99916.00;;;;2079756;28;20221;-53
2022/09/10 01:21:11;;;;;;;1.50;0.93;;;;;23.60;99917.00;;;;2080799;28;20210;-53
2022/09/10 01:22:49;;;;;;;1.80;1.00;;;;;23.60;99920.00;;;;2091241;28;21112;-53
2022/09/10 01:24:11;;;;;;;1.60;1.00;;;;;23.60;99906.00;;;;2093894;28;20267;-53
2022/09/10 01:25:29;;;;;;;1.33;0.70;;;;;23.60;99911.00;;;;2095622;28;20228;-53
2022/09/10 01:26:48;;;;;;;1.88;0.90;;;;;23.60;99902.00;;;;2095854;28;20208;-53
2022/09/10 01:27:52;;;;;;;1.95;0.73;;;;;23.60;99902.00;;;;2093793;28;20722;-54
2022/09/10 01:29:07;;;;;;;1.40;0.90;;;;;23.60;99876.00;;;;2078996;28;20205;-54
2022/09/10 01:30:29;;;;;;;2.78;1.00;;;;;23.60;99906.00;;;;2087042;28;21039;-54
2022/09/10 01:31:30;;;;;;;2.00;0.80;;;;;23.60;99912.00;;;;2088543;28;20216;-53
2022/09/10 01:32:52;;;;;;;1.40;0.70;;;;;23.60;99907.00;;;;2095042;28;20307;-53
2022/09/10 01:34:01;;;;;;;1.98;1.10;;;;;23.60;99900.00;;;;2086558;28;20232;-54
2022/09/10 01:35:06;;;;;;;2.50;1.35;;;;;23.60;99904.00;;;;2080114;28;20210;-53
2022/09/10 01:36:10;;;;;;;1.50;0.80;;;;;23.60;99904.00;;;;2086409;28;20223;-53
2022/09/10 01:37:16;;;;;;;1.42;1.00;;;;;23.60;99904.00;;;;2086738;28;20299;-53
2022/09/10 01:38:20;;;;;;;1.02;0.60;;;;;23.60;99906.00;;;;2071224;28;20313;-53
2022/09/10 01:39:20;;;;;;;1.52;0.90;;;;;23.60;99900.00;;;;2080267;28;20271;-53
2022/09/10 01:40:28;;;;;;;2.40;0.87;;;;;23.60;99949.00;;;;2078800;28;20224;-54
2022/09/10 01:41:28;;;;;;;2.40;1.27;;;;;23.60;99898.00;;;;2080394;28;20218;-53
2022/09/10 01:42:29;;;;;;;1.00;0.60;;;;;23.60;99891.00;;;;2078568;28;20237;-53
2022/09/10 01:43:29;;;;;;;1.47;0.70;;;;;23.60;99909.00;;;;2078755;28;20205;-54
2022/09/10 01:44:46;;;;;;;1.00;0.57;;;;;23.60;99910.00;;;;2087423;28;20221;-53
2022/09/10 01:45:56;;;;;;;1.35;0.60;;;;;23.60;99901.00;;;;2076980;28;20229;-54
2022/09/10 01:47:05;;;;;;;2.83;0.85;;;;;23.60;99906.00;;;;2087248;28;20311;-53
2022/09/10 01:48:14;;;;;;;1.10;0.80;;;;;23.60;99905.00;;;;2077811;28;20308;-53
2022/09/10 01:49:35;;;;;;;1.02;0.52;;;;;23.60;99911.00;;;;2084720;28;20216;-54
2022/09/10 01:50:51;;;;;;;3.53;0.60;;;;;23.60;99903.00;;;;2094986;28;20719;-53
2022/09/10 01:52:14;;;;;;;2.03;0.98;;;;;23.60;99901.00;;;;2088849;28;20299;-53
2022/09/10 01:53:32;;;;;;;3.10;0.65;;;;;23.60;99898.00;;;;2089618;28;20277;-53
2022/09/10 01:54:41;;;;;;;1.60;0.70;;;;;23.60;99895.00;;;;2091051;28;20385;-53
2022/09/10 01:56:03;;;;;;;1.52;0.70;;;;;23.60;99904.00;;;;2088402;28;20612;-53
2022/09/10 01:57:22;;;;;;;0.88;0.60;;;;;23.60;99896.00;;;;2081437;28;20213;-54
2022/09/10 01:58:49;;;;;;;1.40;0.65;;;;;23.60;99913.00;;;;2083336;28;20216;-53
2022/09/10 02:00:08;;;;;;;1.05;0.60;;;;;23.60;99908.00;;;;2086640;28;20634;-53
2022/09/10 02:01:15;;;;;;;1.17;0.50;;;;;23.60;99906.00;;;;2080977;28;21344;-53
2022/09/10 02:02:19;;;;;;;0.90;0.60;;;;;23.60;99910.00;;;;2090919;28;20230;-53
2022/09/10 02:03:21;;;;;;;1.48;0.65;;;;;23.60;99910.00;;;;2102539;28;20215;-53
2022/09/10 02:04:21;;;;;;;1.25;0.82;;;;;23.60;99904.00;;;;2086770;28;20737;-53
2022/09/10 02:05:22;;;;;;;1.33;0.77;;;;;23.60;99908.00;;;;2086787;28;20221;-53
2022/09/10 02:06:26;;;;;;;1.40;0.60;;;;;23.60;99908.00;;;;2086873;28;20213;-54
2022/09/10 02:07:27;;;;;;;1.10;0.60;;;;;23.60;99901.00;;;;2077004;28;20465;-53
2022/09/10 02:08:32;;;;;;;1.67;0.53;;;;;23.60;99904.00;;;;2079051;28;20230;-53
2022/09/10 02:09:32;;;;;;;2.58;0.70;;;;;23.60;99911.00;;;;2071562;28;20706;-53
2022/09/10 02:10:33;;;;;;;1.30;0.60;;;;;23.60;99912.00;;;;2086728;28;20217;-53
2022/09/10 02:11:50;;;;;;;2.60;0.80;;;;;23.60;99909.00;;;;2094749;28;20892;-53
2022/09/10 02:12:51;;;;;;;2.35;0.73;;;;;23.60;99916.00;;;;2086498;28;20256;-53
2022/09/10 02:13:52;;;;;;;1.50;0.70;;;;;23.60;99885.00;;;;2087171;28;20216;-53
2022/09/10 02:14:54;;;;;;;1.70;0.88;;;;;23.60;99942.00;;;;2090581;28;20285;-53
2022/09/10 02:15:55;;;;;;;1.25;0.60;;;;;23.60;99914.00;;;;2082634;28;20212;-53
2022/09/10 02:16:57;;;;;;;1.00;0.60;;;;;23.60;99910.00;;;;2078973;28;20248;-53
2022/09/10 02:17:57;;;;;;;1.17;0.68;;;;;23.60;99923.00;;;;2077710;28;20589;-53
2022/09/10 02:18:58;;;;;;;1.27;0.70;;;;;23.60;99895.00;;;;2070645;28;20209;-53
2022/09/10 02:19:58;;;;;;;2.10;0.80;;;;;23.60;99914.00;;;;2070462;28;20213;-53
2022/09/10 02:21:01;;;;;;;1.63;0.70;;;;;23.60;99921.00;;;;2085189;28;20781;-53
2022/09/10 02:22:01;;;;;;;1.60;0.70;;;;;23.60;99928.00;;;;2086688;28;20248;-54
2022/09/10 02:23:02;;;;;;;0.83;0.53;;;;;23.60;99968.00;;;;2070542;28;21184;-53
2022/09/10 02:24:04;;;;;;;1.67;0.70;;;;;23.60;99922.00;;;;2086589;28;20738;-53
2022/09/10 02:25:05;;;;;;;1.05;0.63;;;;;23.60;99913.00;;;;2094859;28;20239;-54
2022/09/10 02:26:05;;;;;;;1.47;0.60;;;;;23.60;99917.00;;;;2095512;28;20683;-53
2022/09/10 02:27:06;;;;;;;1.10;0.60;;;;;23.60;99918.00;;;;2094884;28;20889;-53
2022/09/10 02:28:07;;;;;;;2.00;0.60;;;;;23.60;99918.00;;;;2094121;28;20640;-53
2022/09/10 02:29:09;;;;;;;1.23;0.70;;;;;23.50;99914.00;;;;2086772;28;20635;-53
2022/09/10 02:30:10;;;;;;;0.80;0.40;;;;;23.50;99921.00;;;;2087094;28;20208;-54
2022/09/10 02:31:11;;;;;;;1.10;0.60;;;;;23.50;99918.00;;;;2095300;28;20216;-53
2022/09/10 02:32:12;;;;;;;1.43;0.77;;;;;23.50;99917.00;;;;2092760;28;20848;-53
2022/09/10 02:33:15;;;;;;;1.63;0.70;;;;;23.50;99921.00;;;;2087240;28;20616;-54
2022/09/10 02:34:15;;;;;;;1.33;0.60;;;;;23.50;99914.00;;;;2090193;28;20319;-53
2022/09/10 02:35:15;;;;;;;0.90;0.60;;;;;23.60;99915.00;;;;2095522;28;20212;-53
2022/09/10 02:36:16;;;;;;;1.30;0.60;;;;;23.50;99913.00;;;;2095039;28;20227;-53
2022/09/10 02:37:16;;;;;;;1.00;0.60;;;;;23.50;99917.00;;;;2094289;28;20243;-53
2022/09/10 02:38:17;;;;;;;1.70;0.70;;;;;23.50;99922.00;;;;2095231;28;20222;-53
2022/09/10 02:39:17;;;;;;;2.53;0.80;;;;;23.50;99913.00;;;;2095341;28;20212;-53
2022/09/10 02:40:20;;;;;;;1.87;0.60;;;;;23.50;99921.00;;;;2095674;28;20212;-53
2022/09/10 02:41:24;;;;;;;3.17;0.70;;;;;23.50;99918.00;;;;2091349;28;20654;-53
2022/09/10 02:42:25;;;;;;;1.50;0.63;;;;;23.50;99902.00;;;;2086888;28;20219;-53
2022/09/10 02:43:26;;;;;;;1.07;0.60;;;;;23.60;99914.00;;;;2087432;28;20209;-53
2022/09/10 02:44:27;;;;;;;1.10;0.60;;;;;23.60;99908.00;;;;2087222;28;21018;-54
2022/09/10 02:45:28;;;;;;;1.57;0.80;;;;;23.60;99913.00;;;;2087302;28;20205;-53
2022/09/10 02:46:28;;;;;;;1.15;0.50;;;;;23.60;99914.00;;;;2087312;28;20448;-53
2022/09/10 02:47:29;;;;;;;1.00;0.50;;;;;23.50;99902.00;;;;2086544;28;20220;-53
2022/09/10 02:48:29;;;;;;;1.07;0.50;;;;;23.60;99913.00;;;;2087417;28;20209;-54
2022/09/10 02:49:30;;;;;;;1.40;0.73;;;;;23.50;99916.00;;;;2087055;28;20223;-53
2022/09/10 02:50:34;;;;;;;1.00;0.57;;;;;23.60;99914.00;;;;2087299;28;20243;-54
2022/09/10 02:51:35;;;;;;;1.02;0.60;;;;;23.50;99913.00;;;;2087221;28;20224;-53
2022/09/10 02:52:36;;;;;;;1.98;0.73;;;;;23.60;99921.00;;;;2087115;28;20217;-53
2022/09/10 02:53:37;;;;;;;0.97;0.60;;;;;23.50;99901.00;;;;2092189;28;20201;-53
2022/09/10 02:54:37;;;;;;;1.10;0.50;;;;;23.50;99916.00;;;;2094490;28;20212;-54
2022/09/10 02:55:37;;;;;;;1.10;0.60;;;;;23.50;99910.00;;;;2094727;28;20283;-53
2022/09/10 02:56:38;;;;;;;0.97;0.53;;;;;23.50;99905.00;;;;2095280;28;20680;-53
2022/09/10 02:57:38;;;;;;;1.70;0.70;;;;;23.50;99916.00;;;;2094639;28;20234;-53
2022/09/10 02:58:38;;;;;;;0.83;0.50;;;;;23.50;99918.00;;;;2095435;28;20230;-53
2022/09/10 02:59:39;;;;;;;2.60;0.80;;;;;23.50;99916.00;;;;2095010;28;20715;-53
2022/09/10 03:00:39;;;;;;;1.43;0.50;;;;;23.60;99917.00;;;;2095328;28;20696;-53
2022/09/10 03:01:39;;;;;;;1.30;0.50;;;;;23.50;99917.00;;;;2090923;28;20248;-53
2022/09/10 03:02:40;;;;;;;1.40;0.47;;;;;23.50;99910.00;;;;2087033;28;20209;-53
2022/09/10 03:03:40;;;;;;;0.70;0.43;;;;;23.50;99912.00;;;;2087131;28;20205;-53
2022/09/10 03:04:41;;;;;;;1.53;0.60;;;;;23.60;99917.00;;;;2094066;28;20213;-53
2022/09/10 03:05:42;;;;;;;1.43;0.60;;;;;23.60;99911.00;;;;2095261;28;20219;-53
2022/09/10 03:06:42;;;;;;;1.27;0.60;;;;;23.60;99912.00;;;;2094923;28;20216;-53
2022/09/10 03:07:43;;;;;;;1.20;0.70;;;;;23.50;99916.00;;;;2093732;28;20216;-53
2022/09/10 03:08:44;;;;;;;1.00;0.70;;;;;23.50;99916.00;;;;2095431;28;20218;-54
2022/09/10 03:09:45;;;;;;;2.10;0.80;;;;;23.50;99916.00;;;;2087599;28;20216;-53
2022/09/10 03:10:45;;;;;;;0.90;0.45;;;;;23.50;99911.00;;;;2086977;28;20212;-53
2022/09/10 03:11:45;;;;;;;1.23;0.50;;;;;23.50;99917.00;;;;2086947;28;20205;-53
2022/09/10 03:12:46;;;;;;;2.53;0.80;;;;;23.50;99914.00;;;;2087022;28;20242;-54
2022/09/10 03:13:47;;;;;;;1.10;0.80;;;;;23.60;99911.00;;;;2087170;28;20225;-54
2022/09/10 03:14:49;;;;;;;1.20;0.60;;;;;23.60;99909.00;;;;2087176;28;20435;-53
2022/09/10 03:15:50;;;;;;;1.27;0.60;;;;;23.50;99904.00;;;;2086182;28;20223;-53
2022/09/10 03:16:50;;;;;;;1.10;0.53;;;;;23.50;99911.00;;;;2086228;28;20213;-54
2022/09/10 03:17:50;;;;;;;1.63;0.50;;;;;23.50;99913.00;;;;2093882;28;21046;-53
2022/09/10 03:18:51;;;;;;;1.07;0.60;;;;;23.50;99914.00;;;;2095226;28;20290;-53
2022/09/10 03:19:51;;;;;;;1.13;0.67;;;;;23.50;99907.00;;;;2095367;28;20580;-53
2022/09/10 03:20:52;;;;;;;1.33;0.60;;;;;23.50;99914.00;;;;2095517;28;20208;-53
2022/09/10 03:21:52;;;;;;;1.63;0.83;;;;;23.50;99911.00;;;;2094748;28;20223;-54
2022/09/10 03:22:52;;;;;;;0.93;0.50;;;;;23.50;99917.00;;;;2087107;28;20622;-53
2022/09/10 03:23:54;;;;;;;1.20;0.60;;;;;23.60;99919.00;;;;2087166;28;20217;-53
2022/09/10 03:24:54;;;;;;;1.63;0.70;;;;;23.50;99922.00;;;;2086899;28;20212;-53
2022/09/10 03:25:55;;;;;;;1.53;0.90;;;;;23.60;99916.00;;;;2086332;28;20330;-53
2022/09/10 03:26:55;;;;;;;1.80;0.70;;;;;23.50;99917.00;;;;2086217;28;20609;-53
2022/09/10 03:27:56;;;;;;;1.50;0.50;;;;;23.50;99917.00;;;;2085205;28;20742;-53
2022/09/10 03:28:57;;;;;;;1.48;1.00;;;;;23.50;99917.00;;;;2086157;28;20232;-53
2022/09/10 03:29:57;;;;;;;0.70;0.50;;;;;23.50;99916.00;;;;2086871;28;20284;-53
2022/09/10 03:30:58;;;;;;;1.03;0.50;;;;;23.50;99908.00;;;;2095254;28;20266;-54
2022/09/10 03:32:00;;;;;;;1.02;0.57;;;;;23.50;99901.00;;;;2095057;28;20215;-53
2022/09/10 03:33:01;;;;;;;1.20;0.52;;;;;23.50;99905.00;;;;2094732;28;20712;-54
2022/09/10 03:34:02;;;;;;;1.00;0.60;;;;;23.50;99933.00;;;;2095177;28;20232;-53
2022/09/10 03:35:02;;;;;;;1.27;0.63;;;;;23.50;99905.00;;;;2095414;28;20240;-53
2022/09/10 03:36:03;;;;;;;1.77;0.70;;;;;23.50;99901.00;;;;2095309;28;20290;-53
2022/09/10 03:37:04;;;;;;;1.33;0.60;;;;;23.50;99911.00;;;;2095290;28;20708;-53
2022/09/10 03:38:05;;;;;;;1.47;0.70;;;;;23.50;99911.00;;;;2089755;28;20225;-53
2022/09/10 03:39:05;;;;;;;1.73;0.60;;;;;23.50;99908.00;;;;2087267;28;20448;-53
2022/09/10 03:40:06;;;;;;;0.80;0.50;;;;;23.50;99910.00;;;;2094199;28;20235;-53
2022/09/10 03:41:07;;;;;;;1.77;0.52;;;;;23.50;99905.00;;;;2088767;28;20205;-53
2022/09/10 03:42:07;;;;;;;0.90;0.53;;;;;23.50;99910.00;;;;2094312;28;20291;-53
2022/09/10 03:43:07;;;;;;;1.63;0.80;;;;;23.50;99908.00;;;;2095167;28;20207;-53
2022/09/10 03:44:09;;;;;;;2.40;0.70;;;;;23.50;99913.00;;;;2094828;28;20578;-53
2022/09/10 03:45:09;;;;;;;1.95;0.80;;;;;23.50;99915.00;;;;2087434;28;20212;-53
2022/09/10 03:46:10;;;;;;;2.10;0.80;;;;;23.50;99906.00;;;;2089352;28;20220;-53
2022/09/10 03:47:11;;;;;;;1.23;0.60;;;;;23.50;99898.00;;;;2086491;28;20209;-53
2022/09/10 03:48:12;;;;;;;1.63;0.65;;;;;23.50;99908.00;;;;2091213;28;20273;-53
2022/09/10 03:49:12;;;;;;;1.20;0.60;;;;;23.50;99904.00;;;;2094333;28;20311;-53
2022/09/10 03:50:12;;;;;;;2.20;0.67;;;;;23.60;99908.00;;;;2087375;28;20235;-52
2022/09/10 03:51:14;;;;;;;1.07;0.57;;;;;23.50;99906.00;;;;2086317;28;20212;-53
2022/09/10 03:52:16;;;;;;;1.23;0.55;;;;;23.50;99901.00;;;;2086237;28;20209;-53
2022/09/10 03:53:16;;;;;;;1.25;0.63;;;;;23.50;99905.00;;;;2086482;28;20217;-53
2022/09/10 03:54:18;;;;;;;1.80;0.73;;;;;23.50;99913.00;;;;2086403;28;20303;-53
2022/09/10 03:55:18;;;;;;;1.40;0.68;;;;;23.50;99912.00;;;;2094759;28;20537;-53
2022/09/10 03:56:19;;;;;;;1.30;0.70;;;;;23.50;99906.00;;;;2095491;28;20848;-53
2022/09/10 03:57:20;;;;;;;1.63;0.75;;;;;23.50;99909.00;;;;2094437;28;20216;-53
2022/09/10 03:58:21;;;;;;;2.95;0.50;;;;;23.50;99937.00;;;;2093681;28;20220;-53
2022/09/10 03:59:21;;;;;;;1.00;0.60;;;;;23.50;99916.00;;;;2093848;28;20751;-53
2022/09/10 04:00:21;;;;;;;1.97;0.70;;;;;23.50;99913.00;;;;2089097;28;20704;-53
2022/09/10 04:01:23;;;;;;;1.20;0.80;;;;;23.50;99905.00;;;;2093111;28;20706;-53
2022/09/10 04:02:23;;;;;;;2.15;0.70;;;;;23.50;99912.00;;;;2094379;28;20216;-53
2022/09/10 04:03:24;;;;;;;3.10;0.70;;;;;23.50;99909.00;;;;2093924;28;20244;-53
2022/09/10 04:04:25;;;;;;;1.17;0.67;;;;;23.50;99913.00;;;;2092219;28;20266;-53
2022/09/10 04:05:26;;;;;;;1.40;0.60;;;;;23.50;99910.00;;;;2094587;28;20447;-53
2022/09/10 04:06:27;;;;;;;2.60;0.90;;;;;23.50;99908.00;;;;2094618;28;20216;-53
2022/09/10 04:07:27;;;;;;;1.00;0.40;;;;;23.50;99903.00;;;;2090314;28;20238;-53
2022/09/10 04:08:27;;;;;;;1.30;0.60;;;;;23.50;99917.00;;;;2094259;28;20208;-53
2022/09/10 04:09:28;;;;;;;1.53;0.77;;;;;23.60;99909.00;;;;2094271;28;20239;-53
2022/09/10 04:10:29;;;;;;;0.80;0.50;;;;;23.50;99911.00;;;;2094967;28;20216;-53
2022/09/10 04:11:29;;;;;;;1.80;0.90;;;;;23.50;99909.00;;;;2092486;28;20235;-53
2022/09/10 04:12:29;;;;;;;1.13;0.70;;;;;23.50;99904.00;;;;2096045;28;20298;-53
2022/09/10 04:13:30;;;;;;;1.17;0.70;;;;;23.50;99906.00;;;;2096216;28;20604;-53
2022/09/10 04:14:30;;;;;;;1.67;0.87;;;;;23.50;99906.00;;;;2092533;28;20213;-53
2022/09/10 04:15:31;;;;;;;1.40;0.73;;;;;23.50;99902.00;;;;2092588;28;20501;-53
2022/09/10 04:16:31;;;;;;;1.00;0.77;;;;;23.50;99911.00;;;;2096112;28;20258;-53
2022/09/10 04:17:32;;;;;;;2.07;0.70;;;;;23.50;99903.00;;;;2094937;28;20238;-54
2022/09/10 04:18:33;;;;;;;1.42;0.50;;;;;23.50;99896.00;;;;2089634;28;20239;-53
2022/09/10 04:19:34;;;;;;;2.65;0.93;;;;;23.50;99908.00;;;;2103639;28;20923;-53
2022/09/10 04:20:36;;;;;;;1.23;0.60;;;;;23.50;99902.00;;;;2094738;28;20228;-53
2022/09/10 04:21:37;;;;;;;2.83;0.90;;;;;23.50;99901.00;;;;2087958;28;20224;-53
2022/09/10 04:22:38;;;;;;;1.67;0.63;;;;;23.50;99892.00;;;;2086864;28;20676;-58
2022/09/10 04:23:41;;;;;;;1.60;0.68;;;;;23.50;99893.00;;;;2092713;28;20228;-54
2022/09/10 04:24:41;;;;;;;1.73;0.68;;;;;23.50;99895.00;;;;2093591;28;20700;-53
2022/09/10 04:25:42;;;;;;;1.50;0.60;;;;;23.50;99878.00;;;;2087449;28;20241;-54
2022/09/10 04:26:42;;;;;;;1.63;0.70;;;;;23.50;99897.00;;;;2086835;28;20223;-53
2022/09/10 04:27:42;;;;;;;1.50;0.60;;;;;23.50;99752.00;;;;2086861;28;20708;-53
2022/09/10 04:28:43;;;;;;;2.23;0.80;;;;;23.50;99901.00;;;;2089899;28;20918;-53
2022/09/10 04:29:43;;;;;;;1.30;0.60;;;;;23.50;99898.00;;;;2089537;28;20663;-53
2022/09/10 04:30:44;;;;;;;3.00;0.53;;;;;23.50;99895.00;;;;2087910;28;20223;-53
2022/09/10 04:31:45;;;;;;;3.20;0.80;;;;;23.50;99892.00;;;;2087825;28;20213;-53
2022/09/10 04:32:46;;;;;;;1.00;0.60;;;;;23.50;99901.00;;;;2081790;28;20235;-53
2022/09/10 04:33:47;;;;;;;1.50;0.67;;;;;23.50;99899.00;;;;2083488;28;20228;-53
2022/09/10 04:34:47;;;;;;;1.70;0.67;;;;;23.50;99894.00;;;;2090305;28;20690;-53
2022/09/10 04:35:47;;;;;;;1.50;0.80;;;;;23.50;99905.00;;;;2095999;28;20481;-54
2022/09/10 04:36:48;;;;;;;1.30;0.70;;;;;23.50;99903.00;;;;2095066;28;20216;-53
2022/09/10 04:37:49;;;;;;;2.60;1.03;;;;;23.50;99902.00;;;;2090562;28;20213;-53
2022/09/10 04:38:49;;;;;;;5.20;0.80;;;;;23.50;99902.00;;;;2090893;28;20443;-53
2022/09/10 04:39:49;;;;;;;1.40;0.50;;;;;23.50;99907.00;;;;2087206;28;20834;-53
2022/09/10 04:40:50;;;;;;;1.23;0.70;;;;;23.50;99905.00;;;;2087155;28;20605;-53
2022/09/10 04:41:50;;;;;;;2.17;0.70;;;;;23.50;99905.00;;;;2087421;28;20255;-53
2022/09/10 04:42:50;;;;;;;1.87;0.60;;;;;23.50;99908.00;;;;2087013;28;20209;-53
2022/09/10 04:43:51;;;;;;;1.77;0.67;;;;;23.50;99910.00;;;;2087884;28;20224;-53
2022/09/10 04:44:51;;;;;;;1.40;0.67;;;;;23.50;99913.00;;;;2096395;28;20304;-53
2022/09/10 04:45:54;;;;;;;1.23;0.67;;;;;23.50;99909.00;;;;2096438;28;20208;-53
2022/09/10 04:46:55;;;;;;;1.95;0.80;;;;;23.50;99826.00;;;;2096620;28;20216;-53
2022/09/10 04:47:55;;;;;;;1.17;0.70;;;;;23.50;99916.00;;;;2090956;28;20220;-53
2022/09/10 04:48:56;;;;;;;1.17;0.53;;;;;23.50;99909.00;;;;2095643;28;20208;-53
2022/09/10 04:49:57;;;;;;;1.20;0.77;;;;;23.50;99917.00;;;;2096591;28;20843;-53
2022/09/10 04:50:58;;;;;;;1.50;0.83;;;;;23.50;99922.00;;;;2096677;28;20217;-53
2022/09/10 04:51:59;;;;;;;2.65;0.82;;;;;23.50;99915.00;;;;2096474;28;20219;-53
2022/09/10 04:53:00;;;;;;;1.30;0.70;;;;;23.50;99910.00;;;;2096349;28;20216;-53
2022/09/10 04:54:00;;;;;;;1.37;0.67;;;;;23.50;99927.00;;;;2083881;28;20398;-53
2022/09/10 04:55:00;;;;;;;1.47;0.60;;;;;23.50;99917.00;;;;2087464;28;20432;-53
2022/09/10 04:56:01;;;;;;;2.00;0.80;;;;;23.50;99924.00;;;;2088182;28;20247;-53
2022/09/10 04:57:01;;;;;;;2.17;0.80;;;;;23.50;99924.00;;;;2087508;28;20216;-53
2022/09/10 04:58:02;;;;;;;2.07;0.77;;;;;23.50;99930.00;;;;2089193;28;20217;-53
2022/09/10 04:59:02;;;;;;;1.47;0.60;;;;;23.50;99929.00;;;;2089588;28;20244;-53
2022/09/10 05:00:05;;;;;;;1.30;0.70;;;;;23.50;99914.00;;;;2088120;28;20221;-53
2022/09/10 05:01:06;;;;;;;1.38;0.60;;;;;23.50;99922.00;;;;2088192;28;20204;-53
2022/09/10 05:02:08;;;;;;;1.67;0.73;;;;;23.50;99922.00;;;;2094465;28;20254;-53
2022/09/10 05:03:08;;;;;;;3.53;0.70;;;;;23.50;99934.00;;;;2096377;28;20298;-53
2022/09/10 05:04:08;;;;;;;2.73;1.20;;;;;23.50;99927.00;;;;2088242;28;20688;-53
2022/09/10 05:05:09;;;;;;;1.53;0.80;;;;;23.50;99924.00;;;;2087948;28;20220;-53
2022/09/10 05:06:09;;;;;;;1.20;0.63;;;;;23.50;99925.00;;;;2090670;28;20309;-53
2022/09/10 05:07:09;;;;;;;2.73;1.00;;;;;23.50;99923.00;;;;2096409;28;20220;-53
2022/09/10 05:08:11;;;;;;;2.33;0.70;;;;;23.50;99925.00;;;;2095531;28;20216;-53
2022/09/10 05:09:12;;;;;;;2.67;1.00;;;;;23.50;99921.00;;;;2091098;28;20220;-53
2022/09/10 05:10:14;;;;;;;0.70;0.40;;;;;23.50;99922.00;;;;2087854;28;20235;-53
2022/09/10 05:11:14;;;;;;;3.92;0.88;;;;;23.50;99925.00;;;;2087564;28;20235;-53
2022/09/10 05:12:15;;;;;;;1.00;0.70;;;;;23.50;99906.00;;;;2091594;28;20220;-53
2022/09/10 05:13:15;;;;;;;2.00;0.83;;;;;23.50;99926.00;;;;2095186;28;20225;-54
2022/09/10 05:14:16;;;;;;;2.13;0.70;;;;;23.50;99923.00;;;;2095323;28;20219;-55
2022/09/10 05:15:16;;;;;;;1.67;0.80;;;;;23.50;99918.00;;;;2095142;28;20212;-54